Kirkby Stephen, United Kingdom
Current Conditions -  °F | °C
As of 9:50 AM on Sunday 25 Jan 2015 (Local Time) from EGXE Reporting Station
Light Rain Light Rain  
Wind Chill: 42°   Ceiling: 10000
Heat Index: 46°   Visibility: 6mi
Dew Point: 37°   Wind: 9mph
Humidity: 71%   Direction: 250°WSW
Pressure: 30.24"   Gusts: NA
Location:  54.47°N, 2.35°W
Report Text: EGXE 250950Z AUTO 25008KT 9999 -RA FEW022/// BKN100/// 08/03 Q1024
Loading
Personal Weather Stations






























Interactive Weather Map New forecast layout! Learn more

10-Day Weather Forecast

Advertisements
Track Severe Weather on mobile